< < Back
Terminal Aerodrome Forecast


Current Version              Previous Versions:   1  2  3  4  5  6  7  8  9  

Terminal Aerodrome Forecast

178
FTUS44 KMOB 201100
TAFMOB
TAF
KMOB 201130Z 2012/2112 00000KT P6SM FEW250
     FM201500 04008KT P6SM FEW250
     FM210300 00000KT P6SM SCT250
     FM210900 10002KT 6SM BR BKN250=

Latest METAR

570
SAUS80 KWBC 202100 RRA
MTRMOB
METAR KMOB 202056Z 04012KT 10SM CLR 23/13 A3014 RMK AO2 SLP204 T02330128
58010


USA.gov is the U.S. government's official web portal to all federal, state and local government web resources and services.